Time;durP1;ratioP1;P1;durP2;ratioP2;P2;SDS_P1;SDS_P2;PMS_P1;PMS_P2;Temp;Humidity;BMP_temperature;BMP_pressure;BME280_temperature;BME280_humidity;BME280_pressure;Samples;Min_cycle;Max_cycle;Signal;HPM_P1;HPM_P2
2020/12/30 00:00:28;;;;;;;2.90;2.23;;;;;;;2.53;84.24;95014.06;5116415;27;20599;-67
2020/12/30 00:02:54;;;;;;;3.70;2.53;;;;;;;2.47;84.60;95013.16;5120067;27;20222;-67
2020/12/30 00:05:19;;;;;;;2.77;2.30;;;;;;;2.58;84.75;95016.78;5127654;27;20228;-67
2020/12/30 00:07:45;;;;;;;2.50;2.17;;;;;;;2.49;85.72;95018.91;5096166;27;20184;-67
2020/12/30 00:10:12;;;;;;;2.60;2.10;;;;;;;2.49;85.52;95017.13;5126095;27;20634;-67
2020/12/30 00:12:39;;;;;;;2.23;1.93;;;;;;;2.67;84.41;95018.88;5111997;27;20207;-67
2020/12/30 00:15:09;;;;;;;2.50;2.10;;;;;;;2.67;84.18;95020.66;5113137;28;20457;-67
2020/12/30 00:17:39;;;;;;;2.77;2.20;;;;;;;2.65;84.36;95027.84;5121007;27;20235;-67
2020/12/30 00:20:06;;;;;;;4.53;3.03;;;;;;;2.67;84.59;95024.03;5124409;27;20176;-67
2020/12/30 00:22:32;;;;;;;4.50;3.10;;;;;;;2.69;83.09;95034.94;5119870;27;20199;-67
2020/12/30 00:24:57;;;;;;;4.10;3.33;;;;;;;2.70;83.19;95030.56;5124383;27;20266;-68
2020/12/30 00:27:23;;;;;;;6.87;3.07;;;;;;;2.41;84.70;95032.91;5115427;27;20172;-68
2020/12/30 00:29:48;;;;;;;3.73;3.20;;;;;;;2.37;84.70;95038.75;5127618;27;20207;-67
2020/12/30 00:32:14;;;;;;;3.83;3.20;;;;;;;2.28;85.46;95035.69;5119785;27;20307;-68
2020/12/30 00:34:42;;;;;;;4.10;2.90;;;;;;;2.28;84.98;95030.53;5111937;28;20283;-67
2020/12/30 00:37:11;;;;;;;3.17;2.70;;;;;;;2.35;84.18;95033.78;5119969;27;20549;-67
2020/12/30 00:39:37;;;;;;;3.00;2.70;;;;;;;2.20;84.72;95028.22;5113315;28;20214;-67
2020/12/30 00:42:02;;;;;;;4.43;2.50;;;;;;;2.26;84.91;95031.72;5126367;27;20215;-67
2020/12/30 00:44:28;;;;;;;2.90;2.60;;;;;;;2.17;85.33;95033.03;5119656;27;20187;-68
2020/12/30 00:46:54;;;;;;;2.57;2.37;;;;;;;2.09;85.59;95034.91;5123545;28;20163;-68
2020/12/30 00:49:20;;;;;;;2.53;2.33;;;;;;;2.21;85.84;95032.38;5115518;28;20184;-68
2020/12/30 00:51:55;;;;;;;3.20;2.33;;;;;;;2.14;85.82;95038.63;5123648;28;20202;-68
2020/12/30 00:54:22;;;;;;;3.47;2.40;;;;;;;2.11;85.75;95039.06;5119940;28;20191;-68
2020/12/30 00:56:48;;;;;;;4.17;2.40;;;;;;;2.02;86.01;95043.72;5122509;28;20255;-68
2020/12/30 00:59:17;;;;;;;2.73;2.40;;;;;;;2.03;86.14;95048.69;5120340;28;20179;-68
2020/12/30 01:01:43;;;;;;;3.53;2.60;;;;;;;2.06;85.83;95050.06;5108421;28;20231;-68
2020/12/30 01:04:09;;;;;;;4.57;3.00;;;;;;;1.95;86.08;95054.13;5111241;28;20207;-68
2020/12/30 01:06:37;;;;;;;3.40;2.70;;;;;;;1.97;86.39;95048.75;5111621;28;20183;-67
2020/12/30 01:09:07;;;;;;;2.77;2.30;;;;;;;1.98;86.15;95053.72;5112024;28;20293;-68
2020/12/30 01:11:32;;;;;;;5.63;2.37;;;;;;;1.95;86.90;95054.13;5111735;28;20198;-67
2020/12/30 01:13:59;;;;;;;2.63;2.30;;;;;;;2.00;87.06;95054.31;5111430;28;20211;-68
2020/12/30 01:16:25;;;;;;;2.57;2.33;;;;;;;1.99;85.96;95063.06;5111958;28;20203;-68
2020/12/30 01:18:51;;;;;;;3.30;2.27;;;;;;;2.15;86.42;95061.69;5110982;28;20183;-68
2020/12/30 01:21:17;;;;;;;2.47;2.20;;;;;;;2.22;85.44;95059.03;5112038;28;20641;-68
2020/12/30 01:23:42;;;;;;;2.60;2.37;;;;;;;2.24;86.41;95062.16;5111189;28;20225;-68
2020/12/30 01:26:09;;;;;;;2.33;2.10;;;;;;;2.38;85.99;95063.59;5112201;28;20617;-68
2020/12/30 01:28:35;;;;;;;2.30;1.90;;;;;;;2.19;86.72;95060.22;5111699;28;20183;-68
2020/12/30 01:31:00;;;;;;;2.10;2.00;;;;;;;2.38;85.48;95069.56;5111373;28;20187;-68
2020/12/30 01:33:26;;;;;;;2.77;1.87;;;;;;;2.46;85.11;95073.63;5111247;28;20202;-68
2020/12/30 01:35:52;;;;;;;3.37;1.80;;;;;;;2.43;84.92;95082.63;5115066;28;20631;-68
2020/12/30 01:38:18;;;;;;;1.60;1.50;;;;;;;2.29;86.12;95078.59;5115882;28;20187;-69
2020/12/30 01:40:43;;;;;;;2.07;1.87;;;;;;;2.41;85.80;95082.03;5114742;28;20171;-68
2020/12/30 01:43:09;;;;;;;2.40;2.10;;;;;;;2.47;84.83;95081.16;5116059;28;20199;-68
2020/12/30 01:45:41;;;;;;;2.73;1.83;;;;;;;2.34;85.19;95078.72;5115478;28;20237;-68
2020/12/30 01:48:15;;;;;;;3.50;2.23;;;;;;;2.31;85.72;95078.38;5115828;28;20175;-68
2020/12/30 01:50:41;;;;;;;2.00;1.90;;;;;;;2.28;85.53;95082.22;5113374;28;20271;-69
2020/12/30 01:53:08;;;;;;;2.07;1.90;;;;;;;2.25;85.85;95079.25;5115158;28;20203;-68
2020/12/30 01:55:41;;;;;;;3.97;2.10;;;;;;;2.21;85.63;95078.91;5114836;28;20669;-68
2020/12/30 01:58:08;;;;;;;1.97;1.60;;;;;;;2.29;85.95;95075.22;5115229;28;20187;-69
2020/12/30 02:03:01;;;;;;;2.20;2.00;;;;;;;2.21;86.63;95088.44;5111820;27;20231;-68
2020/12/30 02:05:31;;;;;;;2.43;2.23;;;;;;;2.13;86.28;95084.34;5115362;28;20180;-68
2020/12/30 02:08:00;;;;;;;2.20;2.10;;;;;;;2.07;87.02;95090.38;5114678;28;20180;-68
2020/12/30 02:10:29;;;;;;;3.23;2.10;;;;;;;2.08;87.15;95084.22;5114747;28;20180;-68
2020/12/30 02:12:56;;;;;;;3.10;1.93;;;;;;;2.07;86.92;95082.63;5114142;28;20248;-68
2020/12/30 02:15:31;;;;;;;2.73;2.10;;;;;;;2.05;87.06;95097.56;5114135;28;20168;-68
2020/12/30 02:17:58;;;;;;;2.07;1.97;;;;;;;2.15;86.59;95091.91;5113993;28;20190;-68
2020/12/30 02:20:25;;;;;;;1.70;1.60;;;;;;;2.01;86.98;95088.66;5114657;28;20179;-68
2020/12/30 02:23:04;;;;;;;2.17;1.97;;;;;;;1.99;87.42;95093.25;5113458;27;20196;-67
2020/12/30 02:25:30;;;;;;;2.00;1.80;;;;;;;2.14;87.35;95098.84;5114639;28;20183;-68
2020/12/30 02:27:56;;;;;;;3.00;1.83;;;;;;;2.17;87.36;95090.69;5113724;28;20172;-68
2020/12/30 02:30:22;;;;;;;1.70;1.60;;;;;;;2.26;87.39;95098.94;5115129;28;20535;-67
2020/12/30 02:32:47;;;;;;;1.70;1.60;;;;;;;2.23;87.21;95107.13;5113473;28;20196;-68
2020/12/30 02:35:14;;;;;;;2.27;1.90;;;;;;;2.18;87.00;95105.16;5113538;28;20188;-67
2020/12/30 02:37:40;;;;;;;1.60;1.50;;;;;;;2.24;86.81;95098.34;5113812;28;20205;-67
2020/12/30 02:40:06;;;;;;;2.00;1.80;;;;;;;2.33;86.15;95103.03;5114075;28;20179;-68
2020/12/30 02:42:32;;;;;;;2.23;1.63;;;;;;;2.34;86.24;95103.81;5113680;28;20203;-68
2020/12/30 02:45:08;;;;;;;1.50;1.40;;;;;;;2.31;86.90;95110.19;5112065;28;20237;-68
2020/12/30 02:47:34;;;;;;;1.47;1.37;;;;;;;2.35;86.09;95107.97;5114119;28;20164;-68
2020/12/30 02:50:00;;;;;;;1.70;1.60;;;;;;;2.35;86.51;95103.59;5113312;28;20418;-69
2020/12/30 02:52:26;;;;;;;1.60;1.50;;;;;;;2.33;86.23;95108.19;5113743;28;20207;-69
2020/12/30 02:54:52;;;;;;;2.30;1.57;;;;;;;2.34;86.31;95102.00;5113231;28;20634;-68
2020/12/30 02:57:18;;;;;;;1.60;1.50;;;;;;;2.28;86.91;95102.88;5113567;28;20211;-69
2020/12/30 02:59:44;;;;;;;2.10;1.33;;;;;;;2.39;86.00;95114.31;5112540;28;20255;-67
2020/12/30 03:02:09;;;;;;;1.50;1.40;;;;;;;2.37;86.50;95121.47;5097721;28;20740;-69
2020/12/30 03:04:35;;;;;;;2.07;1.30;;;;;;;2.33;86.43;95118.53;5093224;28;20260;-68
2020/12/30 03:07:01;;;;;;;1.97;1.80;;;;;;;2.44;86.57;95111.84;5092474;28;20331;-68
2020/12/30 03:09:26;;;;;;;2.37;1.60;;;;;;;2.53;85.96;95117.50;5093205;28;20599;-68
2020/12/30 03:11:51;;;;;;;1.77;1.50;;;;;;;2.35;86.37;95121.69;5092286;28;20204;-68
2020/12/30 03:14:19;;;;;;;1.73;1.40;;;;;;;2.41;85.76;95123.41;5093264;28;20253;-68
2020/12/30 03:16:44;;;;;;;1.43;1.30;;;;;;;2.46;85.96;95122.75;5092080;28;20200;-67
2020/12/30 03:19:10;;;;;;;1.70;1.40;;;;;;;2.46;85.65;95126.13;5093041;28;20176;-69
2020/12/30 03:21:35;;;;;;;2.87;1.50;;;;;;;2.38;86.67;95121.25;5092939;28;20180;-69
2020/12/30 03:24:00;;;;;;;2.17;1.40;;;;;;;2.35;86.77;95124.25;5091923;28;20204;-68
2020/12/30 03:26:26;;;;;;;1.83;1.30;;;;;;;2.37;86.55;95126.63;5092867;28;20545;-68
2020/12/30 03:28:51;;;;;;;1.00;1.00;;;;;;;2.44;86.83;95129.94;5092114;28;20507;-69
2020/12/30 03:31:17;;;;;;;1.30;1.20;;;;;;;2.36;86.75;95130.22;5092819;28;20191;-68
2020/12/30 03:33:42;;;;;;;2.30;1.30;;;;;;;2.42;86.27;95137.13;5091649;28;20605;-68
2020/12/30 03:36:08;;;;;;;1.40;1.30;;;;;;;2.47;86.34;95129.50;5092362;28;20613;-68
2020/12/30 03:38:33;;;;;;;1.40;1.30;;;;;;;2.53;86.23;95128.63;5092275;28;20185;-68
2020/12/30 03:40:59;;;;;;;1.27;1.17;;;;;;;2.64;85.15;95122.72;5091758;28;20184;-68
2020/12/30 03:43:24;;;;;;;1.53;1.43;;;;;;;2.64;85.73;95122.72;5092575;28;20200;-69
2020/12/30 03:45:50;;;;;;;1.40;1.20;;;;;;;2.64;85.22;95132.28;5091936;28;20169;-68
2020/12/30 03:48:15;;;;;;;3.43;1.13;;;;;;;2.56;85.03;95130.00;5092802;28;20271;-69
2020/12/30 03:50:43;;;;;;;1.30;1.20;;;;;;;2.48;85.79;95137.06;5092159;28;20181;-68
2020/12/30 03:53:08;;;;;;;2.80;1.40;;;;;;;2.55;85.73;95142.16;5092383;28;20204;-68
2020/12/30 03:55:34;;;;;;;1.23;1.10;;;;;;;2.41;85.36;95136.31;5092400;28;20621;-69
2020/12/30 03:58:00;;;;;;;1.20;1.10;;;;;;;2.56;84.68;95140.34;5091494;28;20186;-68
2020/12/30 04:00:25;;;;;;;0.90;0.90;;;;;;;2.45;85.25;95141.88;5073134;28;20188;-69
2020/12/30 04:02:51;;;;;;;1.23;1.10;;;;;;;2.46;84.42;95136.47;5088068;28;20236;-68
2020/12/30 04:05:17;;;;;;;2.33;1.30;;;;;;;2.36;85.38;95140.56;5092355;28;20219;-68
2020/12/30 04:07:42;;;;;;;1.40;1.30;;;;;;;2.34;85.46;95140.00;5091514;28;20165;-67
2020/12/30 04:10:08;;;;;;;1.20;1.20;;;;;;;2.29;85.21;95134.66;5092065;28;20173;-68
2020/12/30 04:12:33;;;;;;;1.57;1.20;;;;;;;2.38;85.05;95131.59;5091924;28;20205;-68
2020/12/30 04:14:59;;;;;;;2.20;1.40;;;;;;;2.21;85.67;95135.75;5091321;28;20200;-68
2020/12/30 04:17:24;;;;;;;1.33;1.20;;;;;;;2.17;85.77;95131.25;5092008;28;20203;-69
2020/12/30 04:19:50;;;;;;;1.20;1.10;;;;;;;2.15;85.78;95138.41;5091187;28;20631;-69
2020/12/30 04:22:15;;;;;;;1.53;1.43;;;;;;;2.11;85.75;95138.06;5091751;28;20690;-68
2020/12/30 04:24:47;;;;;;;1.50;1.20;;;;;;;2.08;85.94;95136.69;5091291;28;20180;-68
2020/12/30 04:27:12;;;;;;;3.13;1.20;;;;;;;2.15;85.88;95135.81;5091714;28;20200;-69
2020/12/30 04:29:38;;;;;;;1.83;1.20;;;;;;;2.10;85.35;95141.66;5092090;28;20206;-69
2020/12/30 04:32:03;;;;;;;1.53;1.13;;;;;;;2.17;85.69;95132.03;5090958;28;20296;-68
2020/12/30 04:34:29;;;;;;;1.77;1.37;;;;;;;2.13;84.91;95136.03;5091801;28;20571;-68
2020/12/30 04:36:54;;;;;;;2.03;1.20;;;;;;;2.07;84.91;95134.31;5090767;28;20737;-68
2020/12/30 04:39:20;;;;;;;2.10;1.20;;;;;;;1.92;86.61;95142.41;5091934;28;20183;-68
2020/12/30 04:41:47;;;;;;;1.73;1.20;;;;;;;2.07;85.53;95140.25;5090975;28;20173;-68
2020/12/30 04:44:16;;;;;;;1.37;1.27;;;;;;;1.93;86.12;95140.63;5091583;28;20690;-69
2020/12/30 04:46:43;;;;;;;1.20;1.10;;;;;;;2.08;85.26;95143.63;5091050;28;20169;-67
2020/12/30 04:49:10;;;;;;;1.43;0.97;;;;;;;2.01;85.62;95148.88;5091167;28;20176;-68
2020/12/30 04:51:38;;;;;;;2.93;1.10;;;;;;;2.09;85.55;95148.59;5091015;28;20181;-68
2020/12/30 04:54:05;;;;;;;1.30;1.20;;;;;;;2.18;84.40;95143.13;5090125;28;20771;-68
2020/12/30 04:56:38;;;;;;;2.23;1.33;;;;;;;2.12;84.79;95146.59;5091024;28;20208;-68
2020/12/30 04:59:10;;;;;;;1.30;1.20;;;;;;;2.22;84.79;95150.28;5087191;28;20211;-68
2020/12/30 05:01:49;;;;;;;5.00;1.30;;;;;;;2.29;84.42;95160.50;5085072;28;20311;-67
2020/12/30 05:04:19;;;;;;;1.63;1.03;;;;;;;2.32;84.24;95160.09;5091229;28;20204;-69
2020/12/30 05:06:49;;;;;;;2.20;1.30;;;;;;;2.29;84.33;95153.56;5090753;28;20168;-67
2020/12/30 05:09:19;;;;;;;1.90;1.37;;;;;;;2.23;84.37;95154.41;5094135;28;20215;-69
2020/12/30 05:11:47;;;;;;;4.83;1.50;;;;;;;2.29;83.94;95157.94;5094408;28;20203;-67
2020/12/30 05:14:12;;;;;;;2.20;1.00;;;;;;;2.19;84.59;95163.59;5094770;28;20282;-68
2020/12/30 05:16:38;;;;;;;2.23;1.20;;;;;;;2.11;84.87;95160.53;5094713;28;20283;-68
2020/12/30 05:19:04;;;;;;;3.50;1.50;;;;;;;2.17;85.11;95162.25;5094403;28;20252;-67
2020/12/30 05:21:31;;;;;;;1.27;1.20;;;;;;;2.05;85.29;95165.53;5094865;28;20177;-67
2020/12/30 05:23:57;;;;;;;1.20;1.20;;;;;;;1.85;86.51;95177.81;5094025;28;20280;-67
2020/12/30 05:26:23;;;;;;;2.83;1.43;;;;;;;1.84;86.75;95184.00;5094949;28;20646;-67
2020/12/30 05:28:52;;;;;;;3.33;1.50;;;;;;;1.94;86.06;95188.69;5093888;28;20604;-67
2020/12/30 05:31:18;;;;;;;1.03;1.03;;;;;;;1.98;85.63;95187.25;5094743;28;20199;-68
2020/12/30 05:33:43;;;;;;;1.50;1.27;;;;;;;1.77;86.18;95185.84;5094121;28;20204;-67
2020/12/30 05:36:10;;;;;;;2.83;1.20;;;;;;;1.87;85.96;95198.28;5094158;28;20565;-67
2020/12/30 05:38:35;;;;;;;1.60;1.50;;;;;;;1.83;86.60;95204.88;5076198;28;20248;-68
2020/12/30 05:41:02;;;;;;;2.03;1.33;;;;;;;1.79;86.20;95206.28;5093650;28;20168;-68
2020/12/30 05:43:27;;;;;;;1.53;1.43;;;;;;;1.72;87.10;95208.94;5094176;28;20207;-67
2020/12/30 05:45:54;;;;;;;1.77;1.30;;;;;;;1.76;86.88;95210.09;5093651;28;20173;-67
2020/12/30 05:48:21;;;;;;;1.40;1.20;;;;;;;1.71;87.56;95204.78;5094505;28;20177;-67
2020/12/30 05:50:48;;;;;;;2.70;1.30;;;;;;;1.74;86.99;95208.72;5093615;28;20176;-67
2020/12/30 05:53:14;;;;;;;1.87;1.43;;;;;;;1.77;87.18;95208.31;5094357;28;20675;-67
2020/12/30 05:55:40;;;;;;;1.30;1.20;;;;;;;1.85;86.53;95215.78;5093781;28;20240;-67
2020/12/30 05:58:07;;;;;;;1.97;1.40;;;;;;;1.83;86.28;95218.59;5093334;28;20811;-67
2020/12/30 06:00:33;;;;;;;1.57;1.30;;;;;;;1.93;86.04;95223.28;5092200;28;20222;-68
2020/12/30 06:02:59;;;;;;;1.93;1.30;;;;;;;1.87;86.00;95227.50;5071977;28;20228;-67
2020/12/30 06:05:25;;;;;;;1.03;1.00;;;;;;;1.89;85.82;95224.72;5093553;28;20173;-67
2020/12/30 06:07:53;;;;;;;1.60;1.20;;;;;;;1.91;85.29;95231.22;5093265;28;20165;-67
2020/12/30 06:10:20;;;;;;;1.40;1.20;;;;;;;2.06;85.08;95233.50;5093833;28;20199;-67
2020/12/30 06:12:51;;;;;;;3.07;1.40;;;;;;;2.10;84.21;95234.66;5092897;28;20701;-66
2020/12/30 06:15:25;;;;;;;1.93;1.20;;;;;;;1.91;84.95;95238.97;5094008;28;20176;-67
2020/12/30 06:18:10;;;;;;;1.30;1.10;;;;;;;1.91;85.50;95244.16;5093071;28;20196;-67
2020/12/30 06:20:40;;;;;;;2.70;1.23;;;;;;;1.98;85.47;95250.06;5093337;28;20660;-67
2020/12/30 06:23:05;;;;;;;4.93;1.43;;;;;;;1.95;85.15;95254.88;5093039;28;20196;-67
2020/12/30 06:25:36;;;;;;;2.37;1.07;;;;;;;1.97;84.70;95253.63;5093329;28;20199;-67
2020/12/30 06:28:09;;;;;;;2.27;1.40;;;;;;;1.62;86.05;95261.03;5092556;28;20642;-67
2020/12/30 06:30:35;;;;;;;1.80;1.43;;;;;;;1.62;86.60;95257.66;5093376;28;20177;-67
2020/12/30 06:33:01;;;;;;;2.43;1.70;;;;;;;1.71;86.65;95264.16;5092674;28;20242;-67
2020/12/30 06:35:30;;;;;;;2.40;1.70;;;;;;;1.60;86.63;95263.03;5093668;28;20177;-67
2020/12/30 06:37:57;;;;;;;1.90;1.60;;;;;;;1.53;87.29;95266.66;5092095;28;20544;-67
2020/12/30 06:40:30;;;;;;;3.03;1.63;;;;;;;1.42;87.26;95270.69;5092032;28;20183;-67
2020/12/30 06:43:00;;;;;;;2.00;1.80;;;;;;;1.52;87.78;95272.81;5090402;28;20246;-67
2020/12/30 06:46:04;;;;;;;1.90;1.80;;;;;;;1.64;87.31;95274.53;5092036;28;20173;-68
2020/12/30 06:48:29;;;;;;;2.87;1.53;;;;;;;1.54;87.91;95278.56;5089346;28;20181;-68
2020/12/30 06:50:55;;;;;;;1.53;1.43;;;;;;;1.59;87.65;95271.78;5092409;28;20237;-68
2020/12/30 06:53:30;;;;;;;1.70;1.60;;;;;;;1.68;87.40;95282.66;5092897;28;20196;-67
2020/12/30 06:56:00;;;;;;;6.00;1.50;;;;;;;1.70;86.89;95287.59;5091184;28;20646;-67
2020/12/30 06:58:46;;;;;;;2.30;1.60;;;;;;;1.75;87.20;95280.03;5092438;28;20530;-68
2020/12/30 07:01:17;;;;;;;1.77;1.40;;;;;;;1.70;87.79;95290.19;5089162;28;20270;-68
2020/12/30 07:03:43;;;;;;;1.23;1.20;;;;;;;1.82;86.96;95293.69;5092888;28;20200;-67
2020/12/30 07:06:29;;;;;;;2.63;1.57;;;;;;;1.86;87.16;95294.84;5073831;28;20363;-67
2020/12/30 07:09:01;;;;;;;3.30;1.87;;;;;;;1.86;86.44;95300.81;5089184;28;20176;-66
2020/12/30 07:11:48;;;;;;;2.60;1.90;;;;;;;1.95;86.44;95304.72;5092870;28;20169;-67
2020/12/30 07:14:25;;;;;;;4.20;1.80;;;;;;;1.99;85.80;95305.09;5092640;28;20204;-67
2020/12/30 07:16:55;;;;;;;1.73;1.63;;;;;;;1.81;87.37;95310.19;5076028;28;20628;-70
2020/12/30 07:19:28;;;;;;;2.13;1.70;;;;;;;1.74;88.62;95315.38;5092654;28;20168;-69
2020/12/30 07:22:06;;;;;;;2.27;1.67;;;;;;;2.21;86.96;95306.34;5091939;28;20173;-66
2020/12/30 07:24:46;;;;;;;2.37;1.90;;;;;;;2.13;86.15;95318.72;5092110;28;20233;-66
2020/12/30 07:27:14;;;;;;;2.50;1.90;;;;;;;2.10;86.15;95319.94;5091909;28;20638;-65
2020/12/30 07:29:41;;;;;;;1.50;1.40;;;;;;;2.12;85.73;95315.31;5092802;28;20532;-66
2020/12/30 07:32:08;;;;;;;2.23;1.53;;;;;;;2.05;86.17;95323.16;5073046;28;20769;-65
2020/12/30 07:34:51;;;;;;;1.53;1.43;;;;;;;2.12;86.36;95338.59;5092051;28;20196;-67
2020/12/30 07:37:17;;;;;;;1.57;1.47;;;;;;;2.16;85.80;95338.97;5091970;28;20608;-66
2020/12/30 07:39:46;;;;;;;1.83;1.60;;;;;;;2.19;85.39;95354.06;5092165;28;20177;-65
2020/12/30 07:42:14;;;;;;;1.93;1.67;;;;;;;2.11;85.57;95354.31;5091574;28;20897;-65
2020/12/30 07:44:55;;;;;;;1.90;1.80;;;;;;;2.19;85.53;95354.06;5092073;28;20222;-65
2020/12/30 07:47:23;;;;;;;2.50;1.80;;;;;;;2.21;84.57;95352.84;5091917;28;20171;-65
2020/12/30 07:49:57;;;;;;;4.17;1.90;;;;;;;2.27;84.52;95352.03;5091625;28;20272;-67
2020/12/30 07:52:23;;;;;;;2.23;1.60;;;;;;;2.28;84.74;95355.41;5091693;28;20677;-65
2020/12/30 07:54:50;;;;;;;2.90;1.77;;;;;;;2.34;84.47;95364.91;5073227;28;20183;-67
2020/12/30 07:57:15;;;;;;;5.13;2.00;;;;;;;2.40;84.66;95369.19;5091266;28;20212;-64
2020/12/30 07:59:47;;;;;;;2.83;2.27;;;;;;;2.58;83.23;95373.66;5090647;28;20210;-65
2020/12/30 08:02:15;;;;;;;2.43;2.23;;;;;;;2.54;83.79;95373.28;5088938;28;20323;-65
2020/12/30 08:04:42;;;;;;;2.47;2.27;;;;;;;2.64;83.32;95367.63;5104494;28;20192;-66
2020/12/30 08:07:09;;;;;;;2.43;2.23;;;;;;;2.81;82.62;95369.47;5091324;28;20252;-64
2020/12/30 08:09:44;;;;;;;2.03;1.93;;;;;;;2.92;81.89;95375.75;5091091;28;20169;-65
2020/12/30 08:12:11;;;;;;;2.10;1.90;;;;;;;2.95;81.88;95377.13;5089980;28;20164;-65
2020/12/30 08:14:42;;;;;;;2.13;1.93;;;;;;;3.02;81.23;95377.84;5090640;28;20662;-65
2020/12/30 08:17:10;;;;;;;2.53;1.93;;;;;;;3.10;80.84;95378.34;5089651;28;20281;-66
2020/12/30 08:19:49;;;;;;;5.97;2.60;;;;;;;3.23;80.94;95374.84;5091520;28;20173;-65
2020/12/30 08:22:17;;;;;;;3.53;2.20;;;;;;;3.16;80.11;95377.50;5091221;28;20536;-65
2020/12/30 08:24:42;;;;;;;3.43;2.20;;;;;;;3.11;80.25;95381.75;5091590;28;20198;-65
2020/12/30 08:27:09;;;;;;;1.97;1.80;;;;;;;3.03;80.57;95382.00;5090869;28;20838;-66
2020/12/30 08:29:37;;;;;;;2.20;2.00;;;;;;;2.79;81.87;95388.78;5091218;28;20587;-65
2020/12/30 08:32:16;;;;;;;2.33;2.10;;;;;;;2.66;81.97;95394.88;5090386;28;20180;-65
2020/12/30 08:34:47;;;;;;;2.53;2.17;;;;;;;2.65;82.22;95393.28;5091346;28;20237;-64
2020/12/30 08:37:21;;;;;;;2.10;1.90;;;;;;;2.55;82.53;95392.97;5089429;28;20188;-65
2020/12/30 08:39:55;;;;;;;2.20;2.00;;;;;;;2.74;81.99;95398.97;5090401;28;20537;-65
2020/12/30 08:42:42;;;;;;;2.00;1.90;;;;;;;2.90;81.93;95401.03;5091410;28;20192;-65
2020/12/30 08:45:13;;;;;;;2.27;2.07;;;;;;;3.05;80.79;95398.13;5090238;28;20230;-63
2020/12/30 08:47:39;;;;;;;2.90;2.40;;;;;;;3.02;81.00;95401.13;5090931;28;20633;-66
2020/12/30 08:50:07;;;;;;;4.07;2.43;;;;;;;3.07;80.41;95406.44;5090055;28;20164;-66
2020/12/30 08:52:42;;;;;;;2.50;2.30;;;;;;;3.18;80.29;95410.91;5088839;28;20362;-66
2020/12/30 08:55:09;;;;;;;2.30;2.10;;;;;;;3.16;79.92;95412.94;5088261;28;20369;-66
2020/12/30 08:57:34;;;;;;;2.77;2.33;;;;;;;3.11;80.28;95415.38;5090296;28;20209;-65
2020/12/30 09:00:19;;;;;;;2.97;2.63;;;;;;;3.14;80.44;95409.78;5088883;28;20271;-66
2020/12/30 09:02:46;;;;;;;2.43;2.17;;;;;;;3.10;80.14;95412.00;5120352;28;20237;-65
2020/12/30 09:05:12;;;;;;;2.67;2.20;;;;;;;3.19;80.38;95417.69;5125043;28;21049;-66
2020/12/30 09:07:39;;;;;;;3.27;2.43;;;;;;;3.22;79.95;95415.47;5130966;28;20167;-66
2020/12/30 09:10:10;;;;;;;3.53;2.60;;;;;;;3.26;79.61;95419.22;5121737;28;20172;-66
2020/12/30 09:12:39;;;;;;;4.03;1.80;;;;;;;3.26;79.37;95423.59;5117224;28;20282;-66
2020/12/30 09:15:06;;;;;;;2.50;1.40;;;;;;;3.42;78.55;95424.81;5119397;28;20263;-67
2020/12/30 09:17:33;;;;;;;1.10;1.10;;;;;;;3.33;78.70;95424.34;5119486;28;20241;-66
2020/12/30 09:20:08;;;;;;;1.70;1.30;;;;;;;3.24;78.69;95417.84;5126658;28;20559;-67
2020/12/30 09:22:34;;;;;;;1.70;1.60;;;;;;;3.44;78.63;95423.63;5115969;28;20227;-61
2020/12/30 09:24:59;;;;;;;1.73;1.37;;;;;;;3.38;78.83;95428.88;5125040;28;20604;-68
2020/12/30 09:27:25;;;;;;;1.60;1.50;;;;;;;3.45;78.17;95427.81;5120354;28;20221;-64
2020/12/30 09:30:14;;;;;;;1.30;1.20;;;;;;;3.52;77.60;95440.66;5125735;28;20171;-62
2020/12/30 09:32:42;;;;;;;1.23;1.10;;;;;;;3.72;77.38;95428.28;5098336;28;20199;-62
2020/12/30 09:35:09;;;;;;;1.33;1.23;;;;;;;3.77;77.04;95436.22;5118379;28;20627;-61
2020/12/30 09:37:35;;;;;;;1.50;1.40;;;;;;;3.78;77.09;95431.81;5113500;28;20195;-60
2020/12/30 09:40:04;;;;;;;1.50;1.30;;;;;;;3.98;75.91;95437.53;5114134;28;20183;-62
2020/12/30 09:42:29;;;;;;;1.57;1.47;;;;;;;3.92;75.40;95438.41;5126788;28;20701;-63
2020/12/30 09:44:55;;;;;;;1.93;1.40;;;;;;;4.00;74.72;95440.72;5119027;28;20251;-63
2020/12/30 09:47:20;;;;;;;2.27;1.33;;;;;;;4.04;74.86;95447.03;5112433;28;20168;-62
2020/12/30 09:49:46;;;;;;;1.63;1.43;;;;;;;3.99;75.75;95450.28;5126721;28;20262;-62
2020/12/30 09:52:11;;;;;;;1.70;1.40;;;;;;;4.14;77.12;95449.91;5113472;28;21157;-63
2020/12/30 09:54:36;;;;;;;2.07;1.50;;;;;;;4.15;75.45;95451.50;5121488;27;20180;-62
2020/12/30 09:57:02;;;;;;;1.37;1.20;;;;;;;4.14;75.82;95453.28;5129368;27;20218;-63
2020/12/30 09:59:27;;;;;;;1.67;1.40;;;;;;;4.14;75.60;95449.91;5123482;27;20179;-63
2020/12/30 10:01:54;;;;;;;2.20;1.40;;;;;;;4.16;75.50;95453.88;5126306;27;20223;-64
2020/12/30 10:04:19;;;;;;;2.33;1.53;;;;;;;4.09;75.53;95452.38;5121987;27;20200;-63
2020/12/30 10:06:46;;;;;;;1.90;1.37;;;;;;;4.13;75.05;95451.69;5120329;27;20697;-64
2020/12/30 10:09:13;;;;;;;2.47;1.87;;;;;;;4.15;75.10;95454.88;5120234;27;20210;-64
2020/12/30 10:11:38;;;;;;;2.27;1.90;;;;;;;4.21;75.37;95455.81;5129481;27;20197;-62
2020/12/30 10:14:04;;;;;;;2.40;1.60;;;;;;;4.24;75.69;95454.56;5116872;27;20282;-63
2020/12/30 10:16:32;;;;;;;3.27;1.80;;;;;;;4.35;75.23;95449.41;5126100;27;20659;-63
2020/12/30 10:18:59;;;;;;;2.33;2.13;;;;;;;4.39;75.43;95455.78;5114030;27;20171;-63
2020/12/30 10:21:31;;;;;;;2.20;1.90;;;;;;;4.47;74.62;95458.03;5119163;27;20269;-63
2020/12/30 10:24:00;;;;;;;2.43;1.83;;;;;;;4.41;75.08;95451.13;5126865;27;20279;-63
2020/12/30 10:26:26;;;;;;;3.20;1.73;;;;;;;4.39;75.23;95460.16;5117452;27;20524;-65
2020/12/30 10:28:51;;;;;;;1.50;1.40;;;;;;;4.49;74.45;95452.63;5127256;27;20176;-64
2020/12/30 10:31:17;;;;;;;1.50;1.40;;;;;;;4.45;73.80;95460.06;5127289;27;20183;-64
2020/12/30 10:33:43;;;;;;;1.73;1.33;;;;;;;4.63;74.12;95456.59;5108678;27;20202;-64
2020/12/30 10:36:08;;;;;;;1.90;1.50;;;;;;;4.75;73.31;95451.44;5125655;27;20187;-64
2020/12/30 10:38:34;;;;;;;1.83;1.50;;;;;;;4.80;72.97;95452.38;5119379;27;20172;-64
2020/12/30 10:41:00;;;;;;;1.53;1.43;;;;;;;5.02;72.49;95455.22;5121912;27;20172;-64
2020/12/30 10:43:25;;;;;;;3.07;1.50;;;;;;;4.95;72.48;95455.34;5129856;27;20283;-64
2020/12/30 10:45:51;;;;;;;2.47;1.67;;;;;;;5.23;71.54;95454.69;5122085;27;20178;-64
2020/12/30 10:48:17;;;;;;;1.80;1.33;;;;;;;5.60;71.20;95454.44;5130760;27;20183;-64
2020/12/30 10:50:43;;;;;;;2.13;1.57;;;;;;;5.46;70.91;95463.50;5131986;27;20217;-64
2020/12/30 10:53:09;;;;;;;1.90;1.60;;;;;;;5.72;70.87;95466.41;5122086;27;20311;-64
2020/12/30 10:55:34;;;;;;;1.63;1.40;;;;;;;5.67;70.38;95458.50;5115492;27;20186;-64
2020/12/30 10:58:00;;;;;;;1.70;1.60;;;;;;;5.81;70.65;95465.03;5127780;27;20741;-64
2020/12/30 11:00:25;;;;;;;1.87;1.40;;;;;;;5.80;69.90;95460.03;5101038;27;20186;-64
2020/12/30 11:02:51;;;;;;;2.43;1.47;;;;;;;5.85;69.16;95463.53;5122272;27;20657;-65
2020/12/30 11:05:17;;;;;;;2.23;1.47;;;;;;;5.91;68.65;95464.47;5128201;27;20654;-64
2020/12/30 11:07:42;;;;;;;2.50;1.53;;;;;;;5.94;68.43;95468.44;5126167;27;20160;-64
2020/12/30 11:10:08;;;;;;;1.70;1.37;;;;;;;5.73;69.13;95473.19;5131923;27;20773;-64
2020/12/30 11:12:36;;;;;;;5.40;1.50;;;;;;;5.75;68.76;95468.53;5119291;27;20200;-62
2020/12/30 11:15:06;;;;;;;3.13;1.70;;;;;;;5.83;68.89;95465.59;5112262;27;20163;-62
2020/12/30 11:17:32;;;;;;;1.93;1.50;;;;;;;5.72;69.08;95465.59;5094026;28;20337;-62
2020/12/30 11:19:57;;;;;;;1.20;1.10;;;;;;;5.72;70.05;95473.41;5112390;28;20209;-61
2020/12/30 11:22:26;;;;;;;3.40;1.53;;;;;;;5.71;69.51;95466.63;5125567;27;20745;-62
2020/12/30 11:24:52;;;;;;;2.47;1.47;;;;;;;5.78;68.98;95472.50;5117185;27;20298;-62
2020/12/30 11:27:17;;;;;;;1.60;1.50;;;;;;;5.69;68.66;95469.44;5093915;28;20725;-62
2020/12/30 11:29:43;;;;;;;1.60;1.30;;;;;;;5.77;69.04;95474.31;5118282;27;20172;-62
2020/12/30 11:32:09;;;;;;;1.30;1.20;;;;;;;5.72;69.71;95476.00;5122168;27;20207;-61
2020/12/30 11:34:35;;;;;;;1.37;1.10;;;;;;;5.65;70.01;95473.53;5133386;27;20201;-64
2020/12/30 11:37:00;;;;;;;2.63;1.20;;;;;;;5.74;69.41;95471.38;5115297;27;20227;-64
2020/12/30 11:39:26;;;;;;;1.57;1.27;;;;;;;5.70;69.41;95476.22;5128153;27;20181;-62
2020/12/30 11:41:52;;;;;;;1.13;1.10;;;;;;;5.79;69.13;95471.47;5125146;27;20178;-62
2020/12/30 11:44:17;;;;;;;2.57;1.63;;;;;;;5.63;69.92;95474.78;5120923;27;20445;-62
2020/12/30 11:46:43;;;;;;;2.77;1.93;;;;;;;5.67;70.05;95471.50;5127084;27;20163;-61